createdAt,value
2023-04-22T00:00:51.158Z,15.30
2023-04-22T00:03:18.015Z,14.98
2023-04-22T00:05:44.992Z,16.10
2023-04-22T00:08:11.763Z,15.55
2023-04-22T00:10:38.426Z,15.38
2023-04-22T00:13:05.190Z,17.00
2023-04-22T00:15:31.869Z,16.58
2023-04-22T00:17:59.275Z,15.48
2023-04-22T00:20:26.011Z,15.23
2023-04-22T00:22:52.638Z,16.05
2023-04-22T00:25:19.401Z,17.00
2023-04-22T00:27:46.227Z,15.77
2023-04-22T00:30:16.270Z,15.05
2023-04-22T00:32:42.945Z,15.32
2023-04-22T00:35:09.735Z,15.20
2023-04-22T00:37:36.459Z,16.13
2023-04-22T00:40:03.600Z,14.82
2023-04-22T00:42:30.582Z,15.57
2023-04-22T00:44:57.221Z,15.85
2023-04-22T00:47:26.953Z,15.10
2023-04-22T00:49:55.108Z,16.58
2023-04-22T00:52:21.760Z,16.17
2023-04-22T00:54:49.688Z,16.33
2023-04-22T00:57:17.750Z,16.45
2023-04-22T00:59:44.898Z,16.80
2023-04-22T01:02:12.418Z,16.48
2023-04-22T01:04:39.646Z,17.10
2023-04-22T01:07:06.898Z,16.55
2023-04-22T01:09:34.007Z,16.02
2023-04-22T01:12:01.820Z,16.80
2023-04-22T01:14:29.004Z,18.35
2023-04-22T01:16:56.073Z,17.10
2023-04-22T01:19:23.939Z,15.77
2023-04-22T01:21:54.841Z,17.17
2023-04-22T01:24:22.334Z,16.40
2023-04-22T01:26:49.427Z,16.23
2023-04-22T01:29:16.161Z,17.15
2023-04-22T01:31:45.514Z,16.83
2023-04-22T01:34:12.263Z,16.80
2023-04-22T01:36:38.889Z,16.45
2023-04-22T01:39:06.992Z,15.60
2023-04-22T01:41:34.477Z,16.30
2023-04-22T01:44:03.834Z,15.57
2023-04-22T01:46:30.543Z,15.50
2023-04-22T01:48:57.365Z,17.10
2023-04-22T01:51:26.903Z,14.65
2023-04-22T01:53:53.776Z,15.07
2023-04-22T01:56:20.416Z,14.70
2023-04-22T01:58:47.133Z,14.98
2023-04-22T02:01:13.841Z,15.77
2023-04-22T02:03:40.530Z,15.07
2023-04-22T02:06:07.795Z,15.52
2023-04-22T02:08:34.447Z,15.60
2023-04-22T02:11:03.310Z,14.65
2023-04-22T02:13:36.941Z,14.95
2023-04-22T02:16:03.847Z,14.43
2023-04-22T02:18:30.803Z,14.65
2023-04-22T02:20:57.682Z,14.88
2023-04-22T02:23:25.098Z,15.85
2023-04-22T02:25:52.843Z,15.52
2023-04-22T02:28:19.643Z,15.02
2023-04-22T02:30:46.842Z,15.18
2023-04-22T02:33:13.739Z,15.85
2023-04-22T02:35:40.307Z,15.75
2023-04-22T02:38:06.951Z,15.05
2023-04-22T02:40:33.661Z,15.52
2023-04-22T02:43:00.499Z,15.27
2023-04-22T02:45:30.304Z,15.55
2023-04-22T02:47:57.106Z,14.27
2023-04-22T02:50:23.793Z,14.52
2023-04-22T02:52:51.427Z,13.90
2023-04-22T02:55:18.309Z,14.25
2023-04-22T02:57:44.920Z,14.25
2023-04-22T03:00:11.735Z,14.18
2023-04-22T03:02:39.096Z,15.00
2023-04-22T03:05:06.226Z,14.73
2023-04-22T03:07:32.892Z,14.85
2023-04-22T03:09:59.515Z,15.43
2023-04-22T03:12:26.256Z,14.57
2023-04-22T03:14:52.901Z,14.27
2023-04-22T03:17:19.790Z,14.40
2023-04-22T03:19:47.113Z,14.25
2023-04-22T03:22:13.721Z,15.00
2023-04-22T03:24:40.634Z,14.35
2023-04-22T03:27:07.331Z,14.02
2023-04-22T03:29:34.517Z,14.52
2023-04-22T03:32:01.213Z,14.55
2023-04-22T03:34:27.950Z,14.00
2023-04-22T03:36:54.589Z,14.80
2023-04-22T03:39:21.424Z,14.15
2023-04-22T03:41:48.066Z,14.82
2023-04-22T03:44:14.741Z,13.02
2023-04-22T03:46:41.455Z,13.85
2023-04-22T03:49:08.638Z,14.10
2023-04-22T03:51:35.228Z,13.50
2023-04-22T03:54:04.908Z,13.07
2023-04-22T03:56:31.546Z,14.50
2023-04-22T03:58:58.132Z,13.70
2023-04-22T04:01:24.861Z,15.13
2023-04-22T04:03:52.097Z,13.20
2023-04-22T04:06:18.962Z,13.00
2023-04-22T04:08:46.197Z,12.55
2023-04-22T04:11:12.944Z,14.70
2023-04-22T04:13:39.627Z,13.00
2023-04-22T04:16:07.142Z,13.00
2023-04-22T04:18:33.772Z,12.95
2023-04-22T04:21:00.384Z,12.45
2023-04-22T04:23:27.277Z,11.88
2023-04-22T04:25:55.638Z,13.10
2023-04-22T04:28:25.603Z,12.00
2023-04-22T04:30:53.871Z,12.73
2023-04-22T04:33:23.181Z,11.53
2023-04-22T04:35:49.904Z,12.80
2023-04-22T04:38:16.699Z,12.38
2023-04-22T04:40:43.698Z,12.35
2023-04-22T04:43:10.343Z,12.38
2023-04-22T04:45:37.021Z,12.45
2023-04-22T04:48:03.871Z,11.80
2023-04-22T04:50:30.555Z,12.27
2023-04-22T04:52:59.550Z,12.48
2023-04-22T04:55:26.189Z,13.73
2023-04-22T04:57:52.804Z,12.48
2023-04-22T05:00:19.626Z,11.93
2023-04-22T05:02:46.483Z,12.35
2023-04-22T05:05:13.236Z,12.55
2023-04-22T05:07:39.864Z,13.48
2023-04-22T05:10:07.092Z,11.88
2023-04-22T05:12:33.852Z,11.70
2023-04-22T05:17:30.869Z,12.93
2023-04-22T05:19:57.573Z,11.88
2023-04-22T05:22:24.397Z,11.43
2023-04-22T05:24:51.069Z,12.25
2023-04-22T05:27:18.173Z,12.13
2023-04-22T05:29:44.875Z,11.25
2023-04-22T05:32:11.637Z,10.93
2023-04-22T05:34:38.452Z,12.38
2023-04-22T05:37:05.869Z,12.00
2023-04-22T05:39:32.545Z,11.85
2023-04-22T05:41:59.434Z,11.27
2023-04-22T05:44:26.056Z,11.68
2023-04-22T05:46:52.656Z,10.63
2023-04-22T05:49:19.221Z,11.88
2023-04-22T05:51:46.348Z,12.00
2023-04-22T05:54:13.064Z,11.80
2023-04-22T05:56:39.714Z,11.50
2023-04-22T05:59:06.388Z,11.63
2023-04-22T06:01:33.008Z,12.85
2023-04-22T06:03:59.937Z,11.50
2023-04-22T06:06:27.638Z,11.43
2023-04-22T06:08:54.357Z,11.55
2023-04-22T06:11:21.094Z,10.15
2023-04-22T06:13:47.810Z,11.02
2023-04-22T06:16:14.495Z,11.45
2023-04-22T06:18:43.472Z,10.63
2023-04-22T06:21:10.174Z,10.95
2023-04-22T06:23:36.875Z,10.70
2023-04-22T06:26:04.309Z,10.57
2023-04-22T06:28:30.939Z,10.52
2023-04-22T06:30:57.584Z,9.05
2023-04-22T06:33:24.216Z,9.85
2023-04-22T06:35:51.255Z,9.95
2023-04-22T06:38:17.877Z,9.80
2023-04-22T06:40:44.557Z,10.50
2023-04-22T06:43:11.184Z,9.00
2023-04-22T06:45:37.934Z,10.07
2023-04-22T06:48:04.627Z,10.15
2023-04-22T06:50:31.503Z,9.63
2023-04-22T06:52:58.234Z,8.93
2023-04-22T06:55:24.929Z,9.10
2023-04-22T06:57:51.783Z,8.45
2023-04-22T07:00:18.646Z,9.02
2023-04-22T07:02:45.370Z,9.63
2023-04-22T07:05:13.199Z,8.68
2023-04-22T07:07:39.877Z,9.95
2023-04-22T07:10:06.796Z,9.15
2023-04-22T07:12:33.498Z,7.97
2023-04-22T07:15:02.687Z,8.23
2023-04-22T07:17:29.353Z,8.18
2023-04-22T07:19:56.148Z,8.95
2023-04-22T07:22:22.825Z,8.18
2023-04-22T07:24:49.453Z,8.50
2023-04-22T07:27:16.450Z,8.18
2023-04-22T07:29:43.327Z,7.90
2023-04-22T07:32:10.245Z,8.82
2023-04-22T07:34:36.979Z,8.43
2023-04-22T07:37:03.792Z,8.63
2023-04-22T07:39:30.505Z,8.27
2023-04-22T07:41:57.193Z,7.65
2023-04-22T07:44:23.819Z,7.68
2023-04-22T07:46:50.873Z,7.80
2023-04-22T07:49:17.821Z,7.00
2023-04-22T07:51:44.922Z,7.03
2023-04-22T07:54:11.647Z,7.80
2023-04-22T07:56:41.270Z,7.45
2023-04-22T07:59:08.275Z,7.95
2023-04-22T08:01:34.891Z,6.55
2023-04-22T08:04:04.478Z,7.10
2023-04-22T08:06:32.038Z,7.32
2023-04-22T08:08:58.725Z,6.35
2023-04-22T08:11:25.577Z,7.55
2023-04-22T08:13:52.219Z,5.78
2023-04-22T08:16:19.500Z,7.63
2023-04-22T08:18:46.312Z,7.70
2023-04-22T08:21:12.957Z,7.07
2023-04-22T08:23:39.621Z,7.13
2023-04-22T08:26:08.340Z,6.85
2023-04-22T08:28:35.540Z,5.60
2023-04-22T08:31:02.225Z,6.22
2023-04-22T08:33:28.967Z,6.70
2023-04-22T08:35:55.747Z,5.60
2023-04-22T08:38:22.437Z,6.50
2023-04-22T08:40:49.165Z,5.75
2023-04-22T08:43:16.137Z,5.82
2023-04-22T08:45:43.017Z,6.30
2023-04-22T08:48:11.725Z,6.40
2023-04-22T08:50:39.811Z,5.22
2023-04-22T08:53:06.620Z,6.20
2023-04-22T08:55:35.776Z,6.20
2023-04-22T08:58:07.273Z,5.40
2023-04-22T09:00:34.816Z,5.57
2023-04-22T09:03:03.415Z,6.10
2023-04-22T09:05:33.999Z,5.10
2023-04-22T09:08:01.227Z,5.10
2023-04-22T09:10:34.109Z,4.47
2023-04-22T09:13:03.458Z,4.25
2023-04-22T09:15:30.252Z,4.28
2023-04-22T09:17:58.645Z,4.30
2023-04-22T09:20:29.742Z,3.67
2023-04-22T09:22:58.164Z,4.32
2023-04-22T09:25:27.187Z,3.88
2023-04-22T09:27:56.456Z,4.03
2023-04-22T09:30:33.382Z,3.83
2023-04-22T09:33:01.652Z,3.83
2023-04-22T09:35:36.705Z,4.13
2023-04-22T09:38:06.442Z,4.43
2023-04-22T09:40:33.078Z,4.03
2023-04-22T09:43:06.188Z,4.13
2023-04-22T09:45:35.273Z,3.85
2023-04-22T09:48:13.127Z,3.72
2023-04-22T09:50:43.603Z,4.07
2023-04-22T09:53:12.612Z,4.80
2023-04-22T09:55:43.008Z,4.25
2023-04-22T09:58:11.957Z,4.47
2023-04-22T10:00:47.910Z,4.07
2023-04-22T10:03:15.573Z,4.25
2023-04-22T10:05:44.808Z,4.45
2023-04-22T10:08:13.060Z,4.25
2023-04-22T10:10:40.673Z,4.00
2023-04-22T10:13:08.005Z,4.43
2023-04-22T10:15:42.513Z,4.57
2023-04-22T10:20:40.212Z,3.95
2023-04-22T10:23:13.484Z,3.88
2023-04-22T10:25:41.083Z,4.43
2023-04-22T10:28:10.729Z,4.70
2023-04-22T10:30:39.317Z,4.30
2023-04-22T10:33:21.208Z,4.00
2023-04-22T10:36:08.614Z,4.70
2023-04-22T10:38:39.747Z,4.07
2023-04-22T10:41:06.828Z,3.92
2023-04-22T10:43:55.695Z,4.60
2023-04-22T10:46:38.168Z,5.28
2023-04-22T10:49:23.406Z,4.45
2023-04-22T10:51:58.544Z,3.95
2023-04-22T10:54:36.480Z,4.80
2023-04-22T10:57:20.521Z,4.63
2023-04-22T10:59:54.429Z,5.15
2023-04-22T11:02:22.871Z,5.13
2023-04-22T11:04:52.315Z,4.03
2023-04-22T11:07:20.871Z,4.43
2023-04-22T11:09:50.880Z,5.43
2023-04-22T11:12:35.869Z,4.35
2023-04-22T11:15:05.731Z,4.30
2023-04-22T11:17:33.033Z,4.10
2023-04-22T11:20:00.617Z,3.60
2023-04-22T11:22:27.742Z,3.90
2023-04-22T11:24:58.959Z,4.55
2023-04-22T11:27:26.804Z,4.47
2023-04-22T11:30:08.216Z,6.47
2023-04-22T11:32:38.785Z,4.50
2023-04-22T11:35:10.939Z,4.28
2023-04-22T11:37:43.749Z,4.50
2023-04-22T11:42:41.738Z,3.65
2023-04-22T11:45:09.014Z,3.88
2023-04-22T11:47:36.345Z,4.13
2023-04-22T11:50:07.250Z,3.97
2023-04-22T11:52:44.569Z,3.80
2023-04-22T11:55:20.394Z,3.80
2023-04-22T11:57:59.041Z,3.80
2023-04-22T12:00:34.072Z,4.10
2023-04-22T12:03:03.670Z,4.03
2023-04-22T12:05:53.750Z,4.25
2023-04-22T12:08:23.333Z,6.38
2023-04-22T12:10:52.136Z,6.50
2023-04-22T12:13:24.187Z,5.90
2023-04-22T12:15:56.423Z,4.88
2023-04-22T12:18:37.086Z,4.18
2023-04-22T12:21:14.406Z,6.78
2023-04-22T12:23:44.231Z,4.85
2023-04-22T12:26:11.607Z,6.38
2023-04-22T12:28:38.870Z,9.05
2023-04-22T12:31:06.186Z,5.18
2023-04-22T12:33:33.318Z,4.35
2023-04-22T12:36:00.040Z,3.95
2023-04-22T12:38:26.975Z,3.97
2023-04-22T12:40:54.398Z,3.83
2023-04-22T12:43:21.001Z,6.55
2023-04-22T12:45:47.716Z,4.47
2023-04-22T12:48:14.425Z,9.02
2023-04-22T12:50:41.171Z,5.30
2023-04-22T12:53:10.785Z,5.40
2023-04-22T12:55:37.428Z,5.18
2023-04-22T12:58:04.342Z,5.50
2023-04-22T13:00:31.163Z,4.63
2023-04-22T13:02:58.031Z,5.10
2023-04-22T13:05:25.554Z,7.03
2023-04-22T13:08:05.740Z,4.93
2023-04-22T13:10:34.004Z,5.88
2023-04-22T13:13:16.153Z,4.82
2023-04-22T13:15:44.170Z,5.43
2023-04-22T13:18:10.832Z,5.25
2023-04-22T13:20:37.525Z,4.53
2023-04-22T13:23:04.910Z,6.20
2023-04-22T13:25:31.832Z,5.43
2023-04-22T13:27:58.568Z,5.88
2023-04-22T13:30:25.213Z,4.82
2023-04-22T13:32:52.092Z,5.95
2023-04-22T13:35:18.901Z,5.22
2023-04-22T13:37:46.472Z,4.95
2023-04-22T13:40:13.308Z,5.63
2023-04-22T13:42:39.960Z,5.55
2023-04-22T13:45:07.613Z,4.90
2023-04-22T13:47:36.808Z,4.50
2023-04-22T13:50:05.408Z,4.78
2023-04-22T13:52:32.100Z,5.45
2023-04-22T13:54:58.773Z,6.35
2023-04-22T13:57:26.098Z,6.60
2023-04-22T13:59:52.872Z,10.23
2023-04-22T14:02:19.560Z,9.25
2023-04-22T14:04:48.936Z,5.00
2023-04-22T14:07:19.372Z,5.15
2023-04-22T14:09:46.246Z,5.25
2023-04-22T14:12:13.047Z,5.20
2023-04-22T14:14:39.671Z,3.72
2023-04-22T14:17:06.947Z,4.82
2023-04-22T14:19:33.781Z,5.80
2023-04-22T14:22:00.552Z,5.03
2023-04-22T14:24:27.177Z,6.00
2023-04-22T14:26:54.316Z,6.90
2023-04-22T14:29:20.988Z,5.68
2023-04-22T14:31:49.909Z,4.35
2023-04-22T14:34:17.098Z,6.68
2023-04-22T14:36:45.955Z,4.97
2023-04-22T14:39:12.604Z,7.97
2023-04-22T14:41:39.312Z,5.72
2023-04-22T14:44:06.211Z,6.00
2023-04-22T14:46:32.909Z,7.43
2023-04-22T14:48:59.587Z,5.00
2023-04-22T14:51:29.001Z,6.47
2023-04-22T14:53:56.104Z,5.75
2023-04-22T14:56:23.112Z,5.65
2023-04-22T14:58:49.889Z,6.85
2023-04-22T15:01:16.903Z,5.88
2023-04-22T15:03:44.265Z,6.03
2023-04-22T15:06:13.488Z,6.60
2023-04-22T15:08:40.189Z,6.57
2023-04-22T15:11:06.978Z,6.38
2023-04-22T15:13:33.557Z,5.47
2023-04-22T15:16:00.267Z,4.90
2023-04-22T15:18:26.956Z,5.05
2023-04-22T15:20:53.514Z,6.03
2023-04-22T15:23:20.156Z,5.10
2023-04-22T15:25:46.911Z,7.35
2023-04-22T15:28:14.124Z,7.95
2023-04-22T15:30:41.092Z,8.32
2023-04-22T15:33:07.744Z,5.45
2023-04-22T15:35:34.428Z,6.85
2023-04-22T15:38:02.996Z,6.03
2023-04-22T15:40:29.654Z,5.07
2023-04-22T15:42:56.258Z,5.32
2023-04-22T15:45:22.941Z,4.95
2023-04-22T15:47:52.402Z,6.10
2023-04-22T15:50:20.168Z,5.30
2023-04-22T15:52:46.806Z,5.13
2023-04-22T15:55:13.534Z,13.27
2023-04-22T16:00:12.461Z,5.72
2023-04-22T16:02:40.883Z,5.78
2023-04-22T16:05:08.063Z,5.80
2023-04-22T16:07:35.129Z,5.28
2023-04-22T16:10:02.240Z,8.90
2023-04-22T16:12:28.976Z,6.80
2023-04-22T16:14:55.624Z,5.72
2023-04-22T16:17:22.464Z,5.53
2023-04-22T16:19:49.369Z,6.25
2023-04-22T16:22:18.467Z,4.28
2023-04-22T16:24:48.046Z,5.70
2023-04-22T16:27:17.147Z,9.32
2023-04-22T16:29:44.127Z,4.72
2023-04-22T16:32:11.494Z,4.25
2023-04-22T16:34:38.599Z,5.70
2023-04-22T16:37:06.094Z,5.00
2023-04-22T16:39:33.031Z,4.50
2023-04-22T16:41:59.801Z,3.72
2023-04-22T16:44:26.474Z,5.05
2023-04-22T16:46:55.277Z,5.13
2023-04-22T16:49:21.887Z,6.18
2023-04-22T16:51:50.219Z,4.20
2023-04-22T16:54:17.911Z,5.10
2023-04-22T16:56:44.559Z,5.47
2023-04-22T16:59:11.246Z,4.35
2023-04-22T17:01:37.943Z,4.68
2023-04-22T17:04:04.714Z,5.15
2023-04-22T17:06:32.510Z,3.85
2023-04-22T17:08:59.989Z,5.25
2023-04-22T17:11:26.615Z,4.53
2023-04-22T17:13:53.372Z,4.47
2023-04-22T17:16:22.555Z,4.22
2023-04-22T17:18:51.936Z,4.40
2023-04-22T17:21:18.760Z,5.40
2023-04-22T17:23:45.486Z,4.20
2023-04-22T17:26:12.108Z,4.90
2023-04-22T17:28:38.809Z,4.35
2023-04-22T17:31:05.633Z,4.53
2023-04-22T17:33:32.367Z,4.20
2023-04-22T17:35:59.098Z,5.13
2023-04-22T17:38:25.723Z,5.05
2023-04-22T17:40:52.438Z,5.05
2023-04-22T17:43:19.036Z,5.32
2023-04-22T17:45:48.155Z,4.82
2023-04-22T17:48:17.397Z,3.95
2023-04-22T17:50:44.351Z,4.47
2023-04-22T17:53:11.573Z,4.20
2023-04-22T17:55:38.954Z,3.97
2023-04-22T17:58:06.046Z,4.20
2023-04-22T18:00:34.825Z,4.13
2023-04-22T18:03:01.882Z,4.70
2023-04-22T18:05:28.717Z,4.47
2023-04-22T18:08:01.739Z,5.95
2023-04-22T18:10:30.163Z,4.65
2023-04-22T18:12:56.828Z,4.95
2023-04-22T18:15:23.659Z,5.32
2023-04-22T18:17:51.142Z,5.30
2023-04-22T18:20:19.732Z,5.50
2023-04-22T18:22:48.251Z,5.10
2023-04-22T18:25:15.202Z,4.55
2023-04-22T18:27:41.999Z,5.68
2023-04-22T18:30:08.965Z,5.38
2023-04-22T18:32:36.826Z,5.40
2023-04-22T18:35:04.691Z,4.95
2023-04-22T18:37:32.704Z,5.45
2023-04-22T18:39:59.300Z,4.50
2023-04-22T18:42:25.933Z,5.35
2023-04-22T18:44:52.667Z,4.65
2023-04-22T18:47:19.354Z,5.78
2023-04-22T18:49:46.039Z,5.18
2023-04-22T18:52:12.744Z,5.85
2023-04-22T18:54:39.729Z,5.25
2023-04-22T18:57:06.704Z,6.03
2023-04-22T18:59:33.375Z,6.10
2023-04-22T19:02:00.445Z,5.60
2023-04-22T19:04:27.533Z,5.80
2023-04-22T19:06:57.015Z,5.10
2023-04-22T19:09:24.002Z,5.22
2023-04-22T19:11:50.765Z,5.30
2023-04-22T19:14:17.488Z,5.78
2023-04-22T19:16:44.348Z,5.75
2023-04-22T19:19:12.143Z,5.65
2023-04-22T19:21:39.426Z,5.85
2023-04-22T19:24:06.765Z,6.95
2023-04-22T19:26:34.143Z,7.00
2023-04-22T19:29:01.122Z,7.70
2023-04-22T19:31:28.936Z,7.32
2023-04-22T19:33:55.974Z,8.18
2023-04-22T19:36:22.681Z,7.07
2023-04-22T19:38:49.410Z,8.00
2023-04-22T19:41:18.891Z,7.32
2023-04-22T19:43:49.554Z,7.45
2023-04-22T19:46:16.177Z,7.25
2023-04-22T19:48:42.963Z,6.97
2023-04-22T19:51:11.221Z,5.75
2023-04-22T19:53:39.988Z,6.93
2023-04-22T19:56:07.180Z,6.60
2023-04-22T19:58:33.968Z,7.40
2023-04-22T20:01:00.805Z,6.63
2023-04-22T20:03:28.127Z,6.95
2023-04-22T20:05:55.592Z,6.82
2023-04-22T20:08:27.266Z,6.10
2023-04-22T20:10:55.003Z,5.95
2023-04-22T20:13:22.730Z,6.00
2023-04-22T20:15:49.638Z,6.28
2023-04-22T20:18:16.568Z,6.15
2023-04-22T20:20:45.030Z,6.50
2023-04-22T20:23:14.552Z,5.57
2023-04-22T20:25:47.329Z,5.50
2023-04-22T20:28:14.400Z,5.93
2023-04-22T20:30:41.380Z,5.90
2023-04-22T20:33:10.852Z,6.03
2023-04-22T20:35:38.716Z,6.18
2023-04-22T20:38:05.589Z,5.43
2023-04-22T20:40:33.798Z,5.80
2023-04-22T20:43:00.420Z,6.05
2023-04-22T20:45:27.365Z,6.10
2023-04-22T20:47:54.394Z,5.50
2023-04-22T20:50:21.094Z,6.25
2023-04-22T20:52:50.587Z,5.30
2023-04-22T20:55:17.281Z,6.28
2023-04-22T20:57:43.936Z,5.85
2023-04-22T21:00:11.684Z,5.32
2023-04-22T21:02:40.161Z,5.88
2023-04-22T21:05:07.618Z,5.63
2023-04-22T21:07:35.068Z,5.38
2023-04-22T21:10:01.949Z,5.22
2023-04-22T21:12:28.890Z,5.40
2023-04-22T21:14:55.872Z,4.97
2023-04-22T21:17:30.948Z,5.13
2023-04-22T21:19:58.680Z,5.80
2023-04-22T21:22:25.671Z,5.47
2023-04-22T21:24:53.704Z,5.85
2023-04-22T21:27:22.201Z,5.88
2023-04-22T21:29:49.738Z,5.55
2023-04-22T21:32:17.416Z,6.07
2023-04-22T21:34:44.801Z,6.10
2023-04-22T21:37:11.915Z,5.97
2023-04-22T21:39:40.286Z,6.13
2023-04-22T21:42:09.655Z,6.35
2023-04-22T21:44:37.304Z,6.72
2023-04-22T21:47:04.631Z,5.82
2023-04-22T21:49:31.355Z,5.25
2023-04-22T21:51:58.561Z,5.70
2023-04-22T21:54:25.376Z,5.82
2023-04-22T21:56:52.169Z,6.20
2023-04-22T21:59:18.878Z,5.93
2023-04-22T22:01:48.022Z,5.57
2023-04-22T22:04:16.189Z,6.20
2023-04-22T22:06:44.169Z,5.97
2023-04-22T22:09:11.699Z,6.80
2023-04-22T22:11:38.392Z,7.88
2023-04-22T22:14:05.266Z,8.50
2023-04-22T22:16:32.017Z,8.75
2023-04-22T22:18:59.009Z,9.57
2023-04-22T22:21:25.649Z,9.27
2023-04-22T22:23:52.471Z,9.30
2023-04-22T22:26:19.541Z,8.63
2023-04-22T22:28:46.485Z,8.70
2023-04-22T22:31:13.136Z,9.32
2023-04-22T22:33:39.862Z,9.48
2023-04-22T22:36:06.952Z,8.88
2023-04-22T22:38:33.608Z,9.70
2023-04-22T22:41:00.432Z,9.80
2023-04-22T22:43:29.618Z,10.57
2023-04-22T22:45:56.718Z,10.48
2023-04-22T22:48:23.348Z,11.63
2023-04-22T22:50:50.018Z,10.48
2023-04-22T22:53:16.676Z,11.95
2023-04-22T22:55:43.388Z,11.85
2023-04-22T22:58:10.012Z,11.55
2023-04-22T23:00:37.065Z,11.57
2023-04-22T23:03:04.459Z,11.45
2023-04-22T23:05:31.967Z,11.15
2023-04-22T23:07:58.573Z,11.15
2023-04-22T23:10:25.522Z,11.70
2023-04-22T23:12:54.913Z,11.93
2023-04-22T23:15:21.693Z,10.00
2023-04-22T23:17:50.698Z,11.20
2023-04-22T23:20:18.104Z,10.15
2023-04-22T23:22:46.173Z,10.13
2023-04-22T23:25:13.624Z,10.32
2023-04-22T23:27:41.752Z,10.60
2023-04-22T23:30:09.121Z,10.80
2023-04-22T23:32:38.463Z,9.77
2023-04-22T23:35:06.305Z,10.10
2023-04-22T23:37:34.627Z,9.50
2023-04-22T23:40:01.517Z,10.23
2023-04-22T23:42:28.136Z,12.68
2023-04-22T23:44:54.731Z,12.43
2023-04-22T23:47:21.452Z,12.57
2023-04-22T23:49:48.048Z,13.65
2023-04-22T23:52:14.745Z,12.38
2023-04-22T23:54:41.904Z,12.88
2023-04-22T23:57:09.099Z,11.75
2023-04-22T23:59:36.143Z,12.93
